Tannersville, PA (18372)

8:23 AM EST on December 28, 2014 (GMT -0500)
Pocono Laurel Lake | Change Station
CLOSE
Current Station
Personal Weather Station
Location: Bartonsville, PA
Elevation: 899 ft
Nearby Weather Stations

Elev 899 ft 41.02 °N, 75.28 °W | Updated 11 minutes ago

Overcast
Overcast
40.3 °F
Feels Like 40 °F
N
0.0
Wind Variable Wind from NE

Today
High -- | Low -- °F
--% Chance of Precip.
Yesterday
High -- | Low -- °F
Precip. -- in
7:25 AM 4:40 PM
Waxing Crescent, 47% visible
Pressure 29.88 in
Visibility 10.0 miles
Clouds Scattered Clouds 6000 ft
Mostly Cloudy 9000 ft
Overcast 11000 ft
Windchill 40 °F
Dew Point 40 °F
Humidity 98%
Rainfall 0.04 in
Snow Depth Not available.
UV 0 out of 12
Pollen .10 out of 12
Air Quality Not available.
Flu Activity Not available.
METAR KMPO 281253Z AUTO 28011KT 10SM SCT060 BKN090 OVC110 06/03 A2985 RMK AO2 RAB01E32 PRESRR SLP117 P0000 T00560028

More Conditions Fewer Conditions

Pressure 29.88 in
Visibility 10.0 miles
Clouds Scattered Clouds 6000 ft
Mostly Cloudy 9000 ft
Overcast 11000 ft
Windchill 40 °F
Dew Point 40 °F
Humidity 98%
Rainfall 0.04 in
Snow Depth Not available.
UV 0 out of 12
Pollen .10 out of 12
Air Quality Not available.
Flu Activity Not available.
METAR KMPO 281253Z AUTO 28011KT 10SM SCT060 BKN090 OVC110 06/03 A2985 RMK AO2 RAB01E32 PRESRR SLP117 P0000 T00560028

More Conditions Fewer Conditions

10-Day Weather Forecast

Almanac

Astronomy

Dec. 28, 2014 Rise Set
Actual Time
Civil Twilight
Nautical Twilight
Astronomical Twilight
Moon
Length of Visible Light
Length of Day
Tomorrow will be .
, % of the Moon is Illuminated

Today's Extremes

State Highs State Lows

Community

WunderPhotos

Upload Photos

1,781,258 photos uploaded!

WunderBlogs® & News

Nearby

Air Quality

  Air Quality AQ Index Pollutant
Not available.

Snow Depth

Station Depth Elevation

Earthquake Activity

City Distance Mag. Time & Date
Minimum magnitude displayed is 2.5.

Coastal Water Temperatures

Place Temperature

Nearby Weather Stations